sensor_id;sensor_type;location;lat;lon;timestamp;pressure;altitude;pressure_sealevel;temperature;humidity
4410;BME280;2218;51.408;7.208;2023-04-27T00:01:56;100100.63;;;19.25;32.69
4410;BME280;2218;51.408;7.208;2023-04-27T00:04:23;100110.28;;;19.24;32.83
4410;BME280;2218;51.408;7.208;2023-04-27T00:06:50;100105.00;;;19.24;32.85
4410;BME280;2218;51.408;7.208;2023-04-27T00:09:17;100100.69;;;19.23;32.91
4410;BME280;2218;51.408;7.208;2023-04-27T00:11:44;100105.97;;;19.23;32.62
4410;BME280;2218;51.408;7.208;2023-04-27T00:14:12;100114.81;;;19.22;32.73
4410;BME280;2218;51.408;7.208;2023-04-27T00:16:39;100102.59;;;19.21;32.49
4410;BME280;2218;51.408;7.208;2023-04-27T00:19:06;100107.84;;;19.21;32.90
4410;BME280;2218;51.408;7.208;2023-04-27T00:21:33;100110.59;;;19.20;32.60
4410;BME280;2218;51.408;7.208;2023-04-27T00:24:00;100107.97;;;19.20;32.88
4410;BME280;2218;51.408;7.208;2023-04-27T00:26:27;100107.97;;;19.20;32.64
4410;BME280;2218;51.408;7.208;2023-04-27T00:28:54;100104.47;;;19.19;32.91
4410;BME280;2218;51.408;7.208;2023-04-27T00:31:24;100111.63;;;19.17;32.96
4410;BME280;2218;51.408;7.208;2023-04-27T00:33:51;100109.84;;;19.18;32.85
4410;BME280;2218;51.408;7.208;2023-04-27T00:36:18;100107.19;;;19.18;32.97
4410;BME280;2218;51.408;7.208;2023-04-27T00:38:47;100103.72;;;19.17;32.81
4410;BME280;2218;51.408;7.208;2023-04-27T00:41:14;100110.78;;;19.17;33.07
4410;BME280;2218;51.408;7.208;2023-04-27T00:43:42;100115.19;;;19.16;32.95
4410;BME280;2218;51.408;7.208;2023-04-27T00:46:12;100124.91;;;19.16;33.29
4410;BME280;2218;51.408;7.208;2023-04-27T00:48:41;100118.78;;;19.15;33.15
4410;BME280;2218;51.408;7.208;2023-04-27T00:51:09;100112.69;;;19.15;32.90
4410;BME280;2218;51.408;7.208;2023-04-27T00:53:37;100117.06;;;19.14;32.86
4410;BME280;2218;51.408;7.208;2023-04-27T00:56:05;100126.75;;;19.14;33.07
4410;BME280;2218;51.408;7.208;2023-04-27T00:58:32;100125.94;;;19.13;32.91
4410;BME280;2218;51.408;7.208;2023-04-27T01:00:59;100118.97;;;19.12;33.13
4410;BME280;2218;51.408;7.208;2023-04-27T01:03:27;100126.88;;;19.12;33.10
4410;BME280;2218;51.408;7.208;2023-04-27T01:05:55;100126.03;;;19.11;32.84
4410;BME280;2218;51.408;7.208;2023-04-27T01:08:26;100133.09;;;19.11;33.17
4410;BME280;2218;51.408;7.208;2023-04-27T01:10:53;100127.81;;;19.11;32.79
4410;BME280;2218;51.408;7.208;2023-04-27T01:13:20;100133.19;;;19.09;33.09
4410;BME280;2218;51.408;7.208;2023-04-27T01:15:47;100126.13;;;19.10;33.04
4410;BME280;2218;51.408;7.208;2023-04-27T01:18:15;100128.75;;;19.10;32.90
4410;BME280;2218;51.408;7.208;2023-04-27T01:20:41;100129.69;;;19.09;33.02
4410;BME280;2218;51.408;7.208;2023-04-27T01:23:14;100134.09;;;19.08;33.05
4410;BME280;2218;51.408;7.208;2023-04-27T01:25:41;100133.25;;;19.08;33.05
4410;BME280;2218;51.408;7.208;2023-04-27T01:28:08;100129.78;;;19.07;33.30
4410;BME280;2218;51.408;7.208;2023-04-27T01:30:36;100121.03;;;19.07;33.15
4410;BME280;2218;51.408;7.208;2023-04-27T01:33:03;100130.75;;;19.06;33.11
4410;BME280;2218;51.408;7.208;2023-04-27T01:35:30;100131.59;;;19.07;33.22
4410;BME280;2218;51.408;7.208;2023-04-27T01:37:59;100140.44;;;19.06;33.08
4410;BME280;2218;51.408;7.208;2023-04-27T01:40:27;100136.09;;;19.05;33.29
4410;BME280;2218;51.408;7.208;2023-04-27T01:42:55;100132.59;;;19.04;33.06
4410;BME280;2218;51.408;7.208;2023-04-27T01:45:22;100148.41;;;19.04;33.20
4410;BME280;2218;51.408;7.208;2023-04-27T01:47:50;100144.94;;;19.04;33.22
4410;BME280;2218;51.408;7.208;2023-04-27T01:50:19;100145.88;;;19.03;33.17
4410;BME280;2218;51.408;7.208;2023-04-27T01:52:46;100144.09;;;19.03;33.37
4410;BME280;2218;51.408;7.208;2023-04-27T01:55:13;100146.72;;;19.03;33.22
4410;BME280;2218;51.408;7.208;2023-04-27T01:57:42;100147.56;;;19.04;33.02
4410;BME280;2218;51.408;7.208;2023-04-27T02:00:12;100147.56;;;19.04;32.97
4410;BME280;2218;51.408;7.208;2023-04-27T02:02:48;100144.94;;;19.04;33.05
4410;BME280;2218;51.408;7.208;2023-04-27T02:05:18;100146.72;;;19.03;33.33
4410;BME280;2218;51.408;7.208;2023-04-27T02:07:47;100151.03;;;19.04;33.10
4410;BME280;2218;51.408;7.208;2023-04-27T02:10:14;100155.41;;;19.05;33.26
4410;BME280;2218;51.408;7.208;2023-04-27T02:12:42;100158.75;;;19.07;33.50
4410;BME280;2218;51.408;7.208;2023-04-27T02:15:09;100159.59;;;19.08;33.16
4410;BME280;2218;51.408;7.208;2023-04-27T02:17:37;100158.75;;;19.07;33.22
4410;BME280;2218;51.408;7.208;2023-04-27T02:20:06;100163.19;;;19.07;33.36
4410;BME280;2218;51.408;7.208;2023-04-27T02:22:33;100159.59;;;19.08;33.30
4410;BME280;2218;51.408;7.208;2023-04-27T02:25:01;100161.41;;;19.07;33.30
4410;BME280;2218;51.408;7.208;2023-04-27T02:27:28;100155.19;;;19.08;33.11
4410;BME280;2218;51.408;7.208;2023-04-27T02:29:58;100149.06;;;19.08;33.31
4410;BME280;2218;51.408;7.208;2023-04-27T02:32:25;100149.06;;;19.08;33.11
4410;BME280;2218;51.408;7.208;2023-04-27T02:34:52;100151.72;;;19.08;33.52
4410;BME280;2218;51.408;7.208;2023-04-27T02:37:20;100149.06;;;19.08;33.21
4410;BME280;2218;51.408;7.208;2023-04-27T02:39:46;100150.75;;;19.09;33.22
4410;BME280;2218;51.408;7.208;2023-04-27T02:42:13;100148.13;;;19.09;33.25
4410;BME280;2218;51.408;7.208;2023-04-27T02:44:41;100147.28;;;19.08;33.15
4410;BME280;2218;51.408;7.208;2023-04-27T02:47:10;100142.84;;;19.09;33.40
4410;BME280;2218;51.408;7.208;2023-04-27T02:49:37;100145.50;;;19.09;33.25
4410;BME280;2218;51.408;7.208;2023-04-27T02:52:05;100145.50;;;19.09;33.52
4410;BME280;2218;51.408;7.208;2023-04-27T02:54:32;100138.53;;;19.08;33.14
4410;BME280;2218;51.408;7.208;2023-04-27T02:57:00;100140.22;;;19.09;33.32
4410;BME280;2218;51.408;7.208;2023-04-27T02:59:27;100144.66;;;19.08;33.45
4410;BME280;2218;51.408;7.208;2023-04-27T03:01:54;100147.22;;;19.10;33.21
4410;BME280;2218;51.408;7.208;2023-04-27T03:04:22;100145.50;;;19.09;33.42
4410;BME280;2218;51.408;7.208;2023-04-27T03:06:49;100145.50;;;19.09;33.31
4410;BME280;2218;51.408;7.208;2023-04-27T03:09:16;100143.63;;;19.11;33.25
4410;BME280;2218;51.408;7.208;2023-04-27T03:11:43;100140.16;;;19.10;33.11
4410;BME280;2218;51.408;7.208;2023-04-27T03:14:10;100141.94;;;19.10;33.27
4410;BME280;2218;51.408;7.208;2023-04-27T03:16:38;100131.41;;;19.10;33.43
4410;BME280;2218;51.408;7.208;2023-04-27T03:19:05;100124.41;;;19.09;33.50
4410;BME280;2218;51.408;7.208;2023-04-27T03:21:33;100124.41;;;19.09;33.23
4410;BME280;2218;51.408;7.208;2023-04-27T03:24:00;100129.69;;;19.09;33.19
4410;BME280;2218;51.408;7.208;2023-04-27T03:26:27;100126.13;;;19.10;33.60
4410;BME280;2218;51.408;7.208;2023-04-27T03:28:54;100123.56;;;19.08;33.38
4410;BME280;2218;51.408;7.208;2023-04-27T03:31:21;100133.19;;;19.09;33.67
4410;BME280;2218;51.408;7.208;2023-04-27T03:33:48;100129.69;;;19.09;33.59
4410;BME280;2218;51.408;7.208;2023-04-27T03:36:15;100131.41;;;19.10;33.42
4410;BME280;2218;51.408;7.208;2023-04-27T03:38:43;100127.06;;;19.09;33.60
4410;BME280;2218;51.408;7.208;2023-04-27T03:41:11;100130.56;;;19.09;33.36
4410;BME280;2218;51.408;7.208;2023-04-27T03:43:38;100134.09;;;19.08;33.37
4410;BME280;2218;51.408;7.208;2023-04-27T03:46:05;100142.78;;;19.10;33.20
4410;BME280;2218;51.408;7.208;2023-04-27T03:48:32;100141.09;;;19.09;33.63
4410;BME280;2218;51.408;7.208;2023-04-27T03:50:59;100135.81;;;19.09;33.47
4410;BME280;2218;51.408;7.208;2023-04-27T03:53:27;100135.81;;;19.09;33.25
4410;BME280;2218;51.408;7.208;2023-04-27T03:55:55;100146.44;;;19.08;33.53
4410;BME280;2218;51.408;7.208;2023-04-27T03:58:22;100148.13;;;19.09;33.56
4410;BME280;2218;51.408;7.208;2023-04-27T04:01:07;100158.66;;;19.09;33.44
4410;BME280;2218;51.408;7.208;2023-04-27T04:03:36;100161.28;;;19.09;33.59
4410;BME280;2218;51.408;7.208;2023-04-27T04:06:06;100161.28;;;19.09;33.29
4410;BME280;2218;51.408;7.208;2023-04-27T04:08:33;100156.03;;;19.09;33.62
4410;BME280;2218;51.408;7.208;2023-04-27T04:11:01;100163.94;;;19.09;33.48
4410;BME280;2218;51.408;7.208;2023-04-27T04:13:28;100164.69;;;19.11;33.53
4410;BME280;2218;51.408;7.208;2023-04-27T04:16:01;100164.69;;;19.11;33.51
4410;BME280;2218;51.408;7.208;2023-04-27T04:18:28;100176.09;;;19.11;33.21
4410;BME280;2218;51.408;7.208;2023-04-27T04:20:56;100174.28;;;19.12;33.13
4410;BME280;2218;51.408;7.208;2023-04-27T04:23:23;100178.63;;;19.13;33.32
4410;BME280;2218;51.408;7.208;2023-04-27T04:25:51;100175.03;;;19.14;33.18
4410;BME280;2218;51.408;7.208;2023-04-27T04:28:21;100180.13;;;19.17;32.82
4410;BME280;2218;51.408;7.208;2023-04-27T04:30:48;100179.28;;;19.17;33.02
4410;BME280;2218;51.408;7.208;2023-04-27T04:33:16;100182.66;;;19.19;33.06
4410;BME280;2218;51.408;7.208;2023-04-27T04:35:43;100176.53;;;19.18;33.27
4410;BME280;2218;51.408;7.208;2023-04-27T04:38:11;100179.94;;;19.20;33.08
4410;BME280;2218;51.408;7.208;2023-04-27T04:40:38;100180.78;;;19.21;33.12
4410;BME280;2218;51.408;7.208;2023-04-27T04:43:06;100180.78;;;19.21;32.99
4410;BME280;2218;51.408;7.208;2023-04-27T04:45:34;100178.06;;;19.22;33.05
4410;BME280;2218;51.408;7.208;2023-04-27T04:48:01;100178.91;;;19.23;33.02
4410;BME280;2218;51.408;7.208;2023-04-27T04:50:28;100177.09;;;19.23;33.20
4410;BME280;2218;51.408;7.208;2023-04-27T04:52:55;100185.00;;;19.23;32.96
4410;BME280;2218;51.408;7.208;2023-04-27T04:55:25;100181.44;;;19.24;33.03
4410;BME280;2218;51.408;7.208;2023-04-27T04:57:53;100177.03;;;19.25;32.75
4410;BME280;2218;51.408;7.208;2023-04-27T05:00:20;100178.78;;;19.24;33.01
4410;BME280;2218;51.408;7.208;2023-04-27T05:02:49;100184.00;;;19.26;32.96
4410;BME280;2218;51.408;7.208;2023-04-27T05:05:16;100179.56;;;19.26;33.24
4410;BME280;2218;51.408;7.208;2023-04-27T05:07:43;100176.16;;;19.24;33.26
4410;BME280;2218;51.408;7.208;2023-04-27T05:10:10;100171.75;;;19.25;33.23
4410;BME280;2218;51.408;7.208;2023-04-27T05:12:37;100169.13;;;19.25;33.22
4410;BME280;2218;51.408;7.208;2023-04-27T05:15:05;100175.25;;;19.25;33.20
4410;BME280;2218;51.408;7.208;2023-04-27T05:17:33;100177.88;;;19.25;32.98
4410;BME280;2218;51.408;7.208;2023-04-27T05:20:01;100183.16;;;19.25;33.10
4410;BME280;2218;51.408;7.208;2023-04-27T05:22:29;100191.06;;;19.25;33.09
4410;BME280;2218;51.408;7.208;2023-04-27T05:24:56;100193.47;;;19.28;33.41
4410;BME280;2218;51.408;7.208;2023-04-27T05:27:23;100189.72;;;19.32;33.40
4410;BME280;2218;51.408;7.208;2023-04-27T05:29:50;100199.88;;;19.38;33.35
4410;BME280;2218;51.408;7.208;2023-04-27T05:32:17;100199.53;;;19.45;33.20
4410;BME280;2218;51.408;7.208;2023-04-27T05:34:44;100200.81;;;19.52;33.12
4410;BME280;2218;51.408;7.208;2023-04-27T05:37:12;100197.06;;;19.56;32.98
4410;BME280;2218;51.408;7.208;2023-04-27T05:39:39;100215.25;;;19.60;33.02
4410;BME280;2218;51.408;7.208;2023-04-27T05:42:09;100215.81;;;19.66;32.97
4410;BME280;2218;51.408;7.208;2023-04-27T05:44:36;100215.31;;;19.73;32.46
4410;BME280;2218;51.408;7.208;2023-04-27T05:47:03;100222.63;;;19.82;32.00
4410;BME280;2218;51.408;7.208;2023-04-27T05:49:30;100223.13;;;19.89;32.09
4410;BME280;2218;51.408;7.208;2023-04-27T05:51:57;100221.78;;;19.96;31.44
4410;BME280;2218;51.408;7.208;2023-04-27T05:54:25;100224.97;;;20.01;31.54
4410;BME280;2218;51.408;7.208;2023-04-27T05:56:52;100226.34;;;20.07;31.39
4410;BME280;2218;51.408;7.208;2023-04-27T05:59:19;100230.38;;;20.12;31.16
4410;BME280;2218;51.408;7.208;2023-04-27T06:01:46;100223.00;;;20.18;31.29
4410;BME280;2218;51.408;7.208;2023-04-27T06:04:13;100223.66;;;20.21;31.24
4410;BME280;2218;51.408;7.208;2023-04-27T06:06:40;100222.53;;;20.25;30.72
4410;BME280;2218;51.408;7.208;2023-04-27T06:09:07;100228.53;;;20.27;30.76
4410;BME280;2218;51.408;7.208;2023-04-27T06:11:35;100224.66;;;20.33;30.57
4410;BME280;2218;51.408;7.208;2023-04-27T06:14:02;100218.22;;;20.37;30.54
4410;BME280;2218;51.408;7.208;2023-04-27T06:16:29;100225.13;;;20.39;30.62
4410;BME280;2218;51.408;7.208;2023-04-27T06:18:56;100227.47;;;20.44;30.32
4410;BME280;2218;51.408;7.208;2023-04-27T06:21:23;100228.09;;;20.48;30.15
4410;BME280;2218;51.408;7.208;2023-04-27T06:23:50;100231.28;;;20.53;30.08
4410;BME280;2218;51.408;7.208;2023-04-27T06:26:16;100226.78;;;20.55;30.07
4410;BME280;2218;51.408;7.208;2023-04-27T06:28:45;100232.78;;;20.57;29.89
4410;BME280;2218;51.408;7.208;2023-04-27T06:31:12;100234.47;;;20.58;29.86
4410;BME280;2218;51.408;7.208;2023-04-27T06:33:39;100224.44;;;20.63;29.40
4410;BME280;2218;51.408;7.208;2023-04-27T06:36:07;100224.13;;;20.68;29.35
4410;BME280;2218;51.408;7.208;2023-04-27T06:38:34;100231.75;;;20.72;29.28
4410;BME280;2218;51.408;7.208;2023-04-27T06:41:01;100222.88;;;20.73;29.25
4410;BME280;2218;51.408;7.208;2023-04-27T06:43:29;100228.09;;;20.75;29.30
4410;BME280;2218;51.408;7.208;2023-04-27T06:45:57;100222.50;;;20.79;29.04
4410;BME280;2218;51.408;7.208;2023-04-27T06:48:24;100227.66;;;20.81;28.75
4410;BME280;2218;51.408;7.208;2023-04-27T06:50:51;100227.78;;;20.79;28.99
4410;BME280;2218;51.408;7.208;2023-04-27T06:53:18;100225.88;;;20.81;29.06
4410;BME280;2218;51.408;7.208;2023-04-27T06:55:45;100232.09;;;20.80;28.80
4410;BME280;2218;51.408;7.208;2023-04-27T06:58:12;100227.00;;;20.77;28.68
4410;BME280;2218;51.408;7.208;2023-04-27T07:00:39;100224.38;;;20.77;28.89
4410;BME280;2218;51.408;7.208;2023-04-27T07:03:07;100224.19;;;20.80;28.50
4410;BME280;2218;51.408;7.208;2023-04-27T07:05:34;100220.38;;;20.84;28.38
4410;BME280;2218;51.408;7.208;2023-04-27T07:08:01;100220.16;;;20.87;28.45
4410;BME280;2218;51.408;7.208;2023-04-27T07:10:28;100209.38;;;20.90;28.24
4410;BME280;2218;51.408;7.208;2023-04-27T07:12:55;100214.69;;;20.90;28.42
4410;BME280;2218;51.408;7.208;2023-04-27T07:15:23;100210.13;;;20.92;29.42
4410;BME280;2218;51.408;7.208;2023-04-27T07:17:50;100208.53;;;20.90;29.60
4410;BME280;2218;51.408;7.208;2023-04-27T07:20:20;100209.50;;;20.89;28.88
4410;BME280;2218;51.408;7.208;2023-04-27T07:22:47;100207.72;;;20.89;28.54
4410;BME280;2218;51.408;7.208;2023-04-27T07:25:14;100214.69;;;20.90;28.20
4410;BME280;2218;51.408;7.208;2023-04-27T07:27:41;100219.97;;;20.90;28.35
4410;BME280;2218;51.408;7.208;2023-04-27T07:30:09;100221.53;;;20.93;28.06
4410;BME280;2218;51.408;7.208;2023-04-27T07:32:38;100214.69;;;20.90;28.08
4410;BME280;2218;51.408;7.208;2023-04-27T07:35:06;100217.19;;;20.92;28.21
4410;BME280;2218;51.408;7.208;2023-04-27T07:37:35;100207.47;;;20.92;28.19
4410;BME280;2218;51.408;7.208;2023-04-27T07:40:04;100213.59;;;20.93;28.11
4410;BME280;2218;51.408;7.208;2023-04-27T07:42:36;100219.75;;;20.94;28.18
4410;BME280;2218;51.408;7.208;2023-04-27T07:45:05;100211.72;;;20.95;28.25
4410;BME280;2218;51.408;7.208;2023-04-27T07:47:33;100214.47;;;20.94;28.67
4410;BME280;2218;51.408;7.208;2023-04-27T07:50:00;100216.16;;;20.95;28.07
4410;BME280;2218;51.408;7.208;2023-04-27T07:52:26;100214.47;;;20.94;28.08
4410;BME280;2218;51.408;7.208;2023-04-27T07:54:55;100213.59;;;20.93;27.78
4410;BME280;2218;51.408;7.208;2023-04-27T07:57:22;100209.19;;;20.94;27.88
4410;BME280;2218;51.408;7.208;2023-04-27T07:59:49;100229.38;;;20.95;27.63
4410;BME280;2218;51.408;7.208;2023-04-27T08:02:17;100219.75;;;20.94;27.64
4410;BME280;2218;51.408;7.208;2023-04-27T08:04:44;100228.63;;;20.92;27.64
4410;BME280;2218;51.408;7.208;2023-04-27T08:07:11;100225.25;;;20.90;27.79
4410;BME280;2218;51.408;7.208;2023-04-27T08:09:38;100229.56;;;20.91;27.89
4410;BME280;2218;51.408;7.208;2023-04-27T08:12:06;100225.34;;;20.89;27.97
4410;BME280;2218;51.408;7.208;2023-04-27T08:14:34;100220.91;;;20.89;28.11
4410;BME280;2218;51.408;7.208;2023-04-27T08:17:01;100221.88;;;20.88;28.14
4410;BME280;2218;51.408;7.208;2023-04-27T08:19:28;100220.16;;;20.87;28.25
4410;BME280;2218;51.408;7.208;2023-04-27T08:21:55;100215.00;;;20.86;28.45
4410;BME280;2218;51.408;7.208;2023-04-27T08:24:22;100217.63;;;20.86;28.40
4410;BME280;2218;51.408;7.208;2023-04-27T08:26:49;100216.78;;;20.85;28.59
4410;BME280;2218;51.408;7.208;2023-04-27T08:29:17;100216.91;;;20.84;28.74
4410;BME280;2218;51.408;7.208;2023-04-27T08:31:44;100214.34;;;20.82;28.73
4410;BME280;2218;51.408;7.208;2023-04-27T08:34:12;100223.34;;;20.80;28.95
4410;BME280;2218;51.408;7.208;2023-04-27T08:36:39;100218.13;;;20.78;28.98
4410;BME280;2218;51.408;7.208;2023-04-27T08:39:06;100206.84;;;20.76;29.30
4410;BME280;2218;51.408;7.208;2023-04-27T08:41:33;100213.19;;;20.74;29.22
4410;BME280;2218;51.408;7.208;2023-04-27T08:44:00;100201.88;;;20.72;29.47
4410;BME280;2218;51.408;7.208;2023-04-27T08:46:29;100206.41;;;20.70;29.45
4410;BME280;2218;51.408;7.208;2023-04-27T08:48:56;100208.22;;;20.69;29.60
4410;BME280;2218;51.408;7.208;2023-04-27T08:51:23;100210.84;;;20.69;29.48
4410;BME280;2218;51.408;7.208;2023-04-27T08:53:55;100203.00;;;20.68;29.77
4410;BME280;2218;51.408;7.208;2023-04-27T08:56:24;100201.44;;;20.65;29.61
4410;BME280;2218;51.408;7.208;2023-04-27T08:58:51;100207.69;;;20.64;29.94
4410;BME280;2218;51.408;7.208;2023-04-27T09:01:20;100209.38;;;20.65;29.65
4410;BME280;2218;51.408;7.208;2023-04-27T09:03:54;100212.19;;;20.62;29.99
4410;BME280;2218;51.408;7.208;2023-04-27T09:06:29;100204.28;;;20.62;30.11
4410;BME280;2218;51.408;7.208;2023-04-27T09:08:56;100200.91;;;20.60;29.97
4410;BME280;2218;51.408;7.208;2023-04-27T09:11:29;100207.13;;;20.59;30.13
4410;BME280;2218;51.408;7.208;2023-04-27T09:13:58;100201.84;;;20.59;29.70
4410;BME280;2218;51.408;7.208;2023-04-27T09:16:27;100193.06;;;20.58;30.41
4410;BME280;2218;51.408;7.208;2023-04-27T09:18:57;100207.22;;;20.57;30.28
4410;BME280;2218;51.408;7.208;2023-04-27T09:21:26;100196.66;;;20.57;30.47
4410;BME280;2218;51.408;7.208;2023-04-27T09:23:54;100187.91;;;20.57;30.27
4410;BME280;2218;51.408;7.208;2023-04-27T09:26:24;100181.88;;;20.55;30.50
4410;BME280;2218;51.408;7.208;2023-04-27T09:28:55;100180.19;;;20.54;30.35
4410;BME280;2218;51.408;7.208;2023-04-27T09:31:30;100189.03;;;20.53;30.50
4410;BME280;2218;51.408;7.208;2023-04-27T09:33:59;100187.34;;;20.52;29.92
4410;BME280;2218;51.408;7.208;2023-04-27T09:36:27;100187.34;;;20.52;30.59
4410;BME280;2218;51.408;7.208;2023-04-27T09:38:56;100175.13;;;20.51;30.54
4410;BME280;2218;51.408;7.208;2023-04-27T09:41:24;100177.75;;;20.51;30.58
4410;BME280;2218;51.408;7.208;2023-04-27T09:43:54;100176.06;;;20.50;30.57
4410;BME280;2218;51.408;7.208;2023-04-27T09:46:22;100172.59;;;20.49;30.72
4410;BME280;2218;51.408;7.208;2023-04-27T09:48:51;100173.44;;;20.50;30.52
4410;BME280;2218;51.408;7.208;2023-04-27T09:51:21;100170.03;;;20.48;30.78
4410;BME280;2218;51.408;7.208;2023-04-27T09:53:51;100170.03;;;20.48;30.75
4410;BME280;2218;51.408;7.208;2023-04-27T09:56:36;100166.63;;;20.46;30.79
4410;BME280;2218;51.408;7.208;2023-04-27T09:59:27;100169.25;;;20.46;30.62
4410;BME280;2218;51.408;7.208;2023-04-27T10:02:03;100161.44;;;20.44;30.75
4410;BME280;2218;51.408;7.208;2023-04-27T10:05:06;100170.22;;;20.45;30.85
4410;BME280;2218;51.408;7.208;2023-04-27T10:07:40;100168.50;;;20.44;30.76
4410;BME280;2218;51.408;7.208;2023-04-27T10:10:15;100165.97;;;20.42;30.77
4410;BME280;2218;51.408;7.208;2023-04-27T10:12:54;100164.19;;;20.43;30.65
4410;BME280;2218;51.408;7.208;2023-04-27T10:15:27;100157.22;;;20.42;30.78
4410;BME280;2218;51.408;7.208;2023-04-27T10:17:54;100157.22;;;20.42;30.69
4410;BME280;2218;51.408;7.208;2023-04-27T10:20:31;100163.44;;;20.40;30.76
4410;BME280;2218;51.408;7.208;2023-04-27T10:22:59;100157.31;;;20.40;30.83
4410;BME280;2218;51.408;7.208;2023-04-27T10:25:29;100152.03;;;20.40;30.79
4410;BME280;2218;51.408;7.208;2023-04-27T10:27:59;100145.91;;;20.39;30.92
4410;BME280;2218;51.408;7.208;2023-04-27T10:30:32;100147.59;;;20.40;30.62
4410;BME280;2218;51.408;7.208;2023-04-27T10:33:05;100140.41;;;20.43;30.63
4410;BME280;2218;51.408;7.208;2023-04-27T10:35:35;100133.25;;;20.45;30.31
4410;BME280;2218;51.408;7.208;2023-04-27T10:38:08;100131.47;;;20.45;29.94
4410;BME280;2218;51.408;7.208;2023-04-27T10:40:36;100123.63;;;20.44;29.64
4410;BME280;2218;51.408;7.208;2023-04-27T10:43:08;100127.03;;;20.46;29.82
4410;BME280;2218;51.408;7.208;2023-04-27T10:45:36;100121.66;;;20.47;29.86
4410;BME280;2218;51.408;7.208;2023-04-27T10:48:04;100119.78;;;20.49;29.73
4410;BME280;2218;51.408;7.208;2023-04-27T10:50:31;100119.78;;;20.49;29.67
4410;BME280;2218;51.408;7.208;2023-04-27T10:53:00;100116.19;;;20.50;29.43
4410;BME280;2218;51.408;7.208;2023-04-27T10:55:30;100113.44;;;20.52;29.42
4410;BME280;2218;51.408;7.208;2023-04-27T10:57:58;100107.19;;;20.53;29.36
4410;BME280;2218;51.408;7.208;2023-04-27T11:00:28;100116.81;;;20.54;28.99
4410;BME280;2218;51.408;7.208;2023-04-27T11:03:07;100115.88;;;20.55;28.61
4410;BME280;2218;51.408;7.208;2023-04-27T11:05:35;100118.50;;;20.55;28.88
4410;BME280;2218;51.408;7.208;2023-04-27T11:08:06;100110.59;;;20.55;28.87
4410;BME280;2218;51.408;7.208;2023-04-27T11:10:38;100114.06;;;20.55;29.00
4410;BME280;2218;51.408;7.208;2023-04-27T11:13:08;100105.31;;;20.55;29.08
4410;BME280;2218;51.408;7.208;2023-04-27T11:15:44;100111.31;;;20.57;29.17
4410;BME280;2218;51.408;7.208;2023-04-27T11:18:11;100112.16;;;20.57;29.30
4410;BME280;2218;51.408;7.208;2023-04-27T11:20:38;100109.44;;;20.59;29.26
4410;BME280;2218;51.408;7.208;2023-04-27T11:23:05;100106.78;;;20.59;29.31
4410;BME280;2218;51.408;7.208;2023-04-27T11:25:32;100099.72;;;20.59;29.25
4410;BME280;2218;51.408;7.208;2023-04-27T11:28:00;100097.81;;;20.61;29.47
4410;BME280;2218;51.408;7.208;2023-04-27T11:30:27;100106.56;;;20.62;29.62
4410;BME280;2218;51.408;7.208;2023-04-27T11:32:54;100100.31;;;20.63;29.48
4410;BME280;2218;51.408;7.208;2023-04-27T11:35:32;100107.31;;;20.64;29.53
4410;BME280;2218;51.408;7.208;2023-04-27T11:37:59;100113.34;;;20.66;29.58
4410;BME280;2218;51.408;7.208;2023-04-27T11:40:26;100115.97;;;20.66;29.42
4410;BME280;2218;51.408;7.208;2023-04-27T11:42:57;100103.59;;;20.67;29.51
4410;BME280;2218;51.408;7.208;2023-04-27T11:45:26;100108.78;;;20.68;29.80
4410;BME280;2218;51.408;7.208;2023-04-27T11:47:53;100101.72;;;20.69;29.37
4410;BME280;2218;51.408;7.208;2023-04-27T11:50:24;100091.16;;;20.69;29.67
4410;BME280;2218;51.408;7.208;2023-04-27T11:52:51;100092.00;;;20.69;29.81
4410;BME280;2218;51.408;7.208;2023-04-27T11:55:20;100082.28;;;20.70;29.90
4410;BME280;2218;51.408;7.208;2023-04-27T11:57:47;100083.97;;;20.71;30.17
4410;BME280;2218;51.408;7.208;2023-04-27T12:00:15;100076.88;;;20.71;29.97
4410;BME280;2218;51.408;7.208;2023-04-27T12:02:44;100076.88;;;20.71;30.22
4410;BME280;2218;51.408;7.208;2023-04-27T12:05:11;100078.56;;;20.72;29.99
4410;BME280;2218;51.408;7.208;2023-04-27T12:07:38;100074.97;;;20.73;30.44
4410;BME280;2218;51.408;7.208;2023-04-27T12:10:07;100073.09;;;20.75;30.48
4410;BME280;2218;51.408;7.208;2023-04-27T12:12:34;100080.06;;;20.76;30.85
4410;BME280;2218;51.408;7.208;2023-04-27T12:15:01;100065.03;;;20.77;30.72
4410;BME280;2218;51.408;7.208;2023-04-27T12:17:28;100072.13;;;20.76;30.67
4410;BME280;2218;51.408;7.208;2023-04-27T12:19:57;100077.28;;;20.78;30.71
4410;BME280;2218;51.408;7.208;2023-04-27T12:22:23;100068.63;;;20.76;30.73
4410;BME280;2218;51.408;7.208;2023-04-27T12:24:51;100064.19;;;20.76;30.72
4410;BME280;2218;51.408;7.208;2023-04-27T12:27:18;100067.81;;;20.75;30.90
4410;BME280;2218;51.408;7.208;2023-04-27T12:29:45;100049.44;;;20.74;30.75
4410;BME280;2218;51.408;7.208;2023-04-27T12:32:12;100052.16;;;20.72;30.00
4410;BME280;2218;51.408;7.208;2023-04-27T12:34:39;100051.94;;;20.75;29.65
4410;BME280;2218;51.408;7.208;2023-04-27T12:37:08;100048.22;;;20.78;29.20
4410;BME280;2218;51.408;7.208;2023-04-27T12:39:35;100044.56;;;20.80;28.43
4410;BME280;2218;51.408;7.208;2023-04-27T12:42:02;100044.56;;;20.80;28.13
4410;BME280;2218;51.408;7.208;2023-04-27T12:44:29;100042.03;;;20.79;27.45
4410;BME280;2218;51.408;7.208;2023-04-27T12:46:56;100035.66;;;20.81;27.60
4410;BME280;2218;51.408;7.208;2023-04-27T12:49:23;100046.97;;;20.83;27.17
4410;BME280;2218;51.408;7.208;2023-04-27T12:51:51;100039.78;;;20.85;27.02
4410;BME280;2218;51.408;7.208;2023-04-27T12:54:20;100029.09;;;20.87;26.78
4410;BME280;2218;51.408;7.208;2023-04-27T12:56:47;100029.00;;;20.88;26.63
4410;BME280;2218;51.408;7.208;2023-04-27T12:59:14;100031.03;;;20.85;25.37
4410;BME280;2218;51.408;7.208;2023-04-27T13:01:41;100039.78;;;20.85;25.81
4410;BME280;2218;51.408;7.208;2023-04-27T13:04:08;100027.41;;;20.86;26.04
4410;BME280;2218;51.408;7.208;2023-04-27T13:06:42;100026.38;;;20.88;26.04
4410;BME280;2218;51.408;7.208;2023-04-27T13:09:09;100026.25;;;20.90;25.90
4410;BME280;2218;51.408;7.208;2023-04-27T13:11:38;100028.78;;;20.91;25.79
4410;BME280;2218;51.408;7.208;2023-04-27T13:14:05;100033.94;;;20.93;26.04
4410;BME280;2218;51.408;7.208;2023-04-27T13:16:32;100028.66;;;20.93;25.65